sensor_id;sensor_type;location;lat;lon;timestamp;P1;durP1;ratioP1;P2;durP2;ratioP2
22359;SDS011;11347;52.030;4.690;2022-08-25T00:01:12;4.30;;;2.47;;
22359;SDS011;11347;52.030;4.690;2022-08-25T00:03:40;3.80;;;2.70;;
22359;SDS011;11347;52.030;4.690;2022-08-25T00:06:07;3.63;;;2.30;;
22359;SDS011;11347;52.030;4.690;2022-08-25T00:08:34;3.13;;;2.47;;
22359;SDS011;11347;52.030;4.690;2022-08-25T00:11:02;3.83;;;2.57;;
22359;SDS011;11347;52.030;4.690;2022-08-25T00:13:36;3.60;;;2.47;;
22359;SDS011;11347;52.030;4.690;2022-08-25T00:16:07;5.33;;;2.53;;
22359;SDS011;11347;52.030;4.690;2022-08-25T00:18:34;2.97;;;2.40;;
22359;SDS011;11347;52.030;4.690;2022-08-25T00:21:01;3.63;;;2.60;;
22359;SDS011;11347;52.030;4.690;2022-08-25T00:23:27;4.93;;;2.90;;
22359;SDS011;11347;52.030;4.690;2022-08-25T00:25:52;3.73;;;2.50;;
22359;SDS011;11347;52.030;4.690;2022-08-25T00:28:19;3.37;;;2.60;;
22359;SDS011;11347;52.030;4.690;2022-08-25T00:30:45;3.90;;;2.80;;
22359;SDS011;11347;52.030;4.690;2022-08-25T00:33:11;4.70;;;2.80;;
22359;SDS011;11347;52.030;4.690;2022-08-25T00:35:37;3.63;;;2.70;;
22359;SDS011;11347;52.030;4.690;2022-08-25T00:38:05;3.83;;;3.00;;
22359;SDS011;11347;52.030;4.690;2022-08-25T00:40:30;4.67;;;3.10;;
22359;SDS011;11347;52.030;4.690;2022-08-25T00:42:56;4.07;;;2.90;;
22359;SDS011;11347;52.030;4.690;2022-08-25T00:45:22;3.27;;;2.60;;
22359;SDS011;11347;52.030;4.690;2022-08-25T00:47:47;3.40;;;2.80;;
22359;SDS011;11347;52.030;4.690;2022-08-25T00:50:13;4.33;;;2.70;;
22359;SDS011;11347;52.030;4.690;2022-08-25T00:52:42;3.77;;;2.87;;
22359;SDS011;11347;52.030;4.690;2022-08-25T00:55:13;4.37;;;2.80;;
22359;SDS011;11347;52.030;4.690;2022-08-25T01:00:36;4.07;;;3.00;;
22359;SDS011;11347;52.030;4.690;2022-08-25T01:03:04;5.07;;;3.00;;
22359;SDS011;11347;52.030;4.690;2022-08-25T01:05:30;4.87;;;3.10;;
22359;SDS011;11347;52.030;4.690;2022-08-25T01:07:56;4.30;;;3.17;;
22359;SDS011;11347;52.030;4.690;2022-08-25T01:10:27;3.57;;;2.87;;
22359;SDS011;11347;52.030;4.690;2022-08-25T01:12:56;4.30;;;3.07;;
22359;SDS011;11347;52.030;4.690;2022-08-25T01:15:25;4.70;;;2.73;;
22359;SDS011;11347;52.030;4.690;2022-08-25T01:17:53;4.33;;;3.00;;
22359;SDS011;11347;52.030;4.690;2022-08-25T01:20:21;4.40;;;3.03;;
22359;SDS011;11347;52.030;4.690;2022-08-25T01:22:49;3.87;;;3.10;;
22359;SDS011;11347;52.030;4.690;2022-08-25T01:25:21;6.23;;;3.20;;
22359;SDS011;11347;52.030;4.690;2022-08-25T01:27:57;3.67;;;2.60;;
22359;SDS011;11347;52.030;4.690;2022-08-25T01:30:23;3.90;;;2.90;;
22359;SDS011;11347;52.030;4.690;2022-08-25T01:32:50;4.87;;;2.90;;
22359;SDS011;11347;52.030;4.690;2022-08-25T01:35:15;3.40;;;2.77;;
22359;SDS011;11347;52.030;4.690;2022-08-25T01:37:41;6.77;;;2.87;;
22359;SDS011;11347;52.030;4.690;2022-08-25T01:40:07;3.63;;;2.97;;
22359;SDS011;11347;52.030;4.690;2022-08-25T01:45:31;3.93;;;2.80;;
22359;SDS011;11347;52.030;4.690;2022-08-25T01:47:57;3.67;;;2.70;;
22359;SDS011;11347;52.030;4.690;2022-08-25T01:50:23;3.43;;;2.90;;
22359;SDS011;11347;52.030;4.690;2022-08-25T01:52:51;3.10;;;2.80;;
22359;SDS011;11347;52.030;4.690;2022-08-25T01:55:22;3.70;;;3.17;;
22359;SDS011;11347;52.030;4.690;2022-08-25T01:57:48;5.53;;;3.10;;
22359;SDS011;11347;52.030;4.690;2022-08-25T02:00:14;4.77;;;2.83;;
22359;SDS011;11347;52.030;4.690;2022-08-25T02:02:40;4.77;;;2.90;;
22359;SDS011;11347;52.030;4.690;2022-08-25T02:05:07;3.87;;;3.10;;
22359;SDS011;11347;52.030;4.690;2022-08-25T02:07:34;4.60;;;2.80;;
22359;SDS011;11347;52.030;4.690;2022-08-25T02:10:00;3.83;;;2.63;;
22359;SDS011;11347;52.030;4.690;2022-08-25T02:12:28;3.93;;;2.67;;
22359;SDS011;11347;52.030;4.690;2022-08-25T02:14:56;4.47;;;2.57;;
22359;SDS011;11347;52.030;4.690;2022-08-25T02:17:22;4.40;;;2.90;;
22359;SDS011;11347;52.030;4.690;2022-08-25T02:19:47;2.83;;;2.57;;
22359;SDS011;11347;52.030;4.690;2022-08-25T02:22:13;4.50;;;2.97;;
22359;SDS011;11347;52.030;4.690;2022-08-25T02:24:39;3.53;;;2.90;;
22359;SDS011;11347;52.030;4.690;2022-08-25T02:27:05;5.37;;;2.63;;
22359;SDS011;11347;52.030;4.690;2022-08-25T02:29:31;5.27;;;3.00;;
22359;SDS011;11347;52.030;4.690;2022-08-25T02:31:56;4.20;;;2.80;;
22359;SDS011;11347;52.030;4.690;2022-08-25T02:34:22;6.27;;;3.00;;
22359;SDS011;11347;52.030;4.690;2022-08-25T02:36:48;4.33;;;3.07;;
22359;SDS011;11347;52.030;4.690;2022-08-25T02:39:14;6.10;;;3.03;;
22359;SDS011;11347;52.030;4.690;2022-08-25T02:41:39;3.70;;;2.83;;
22359;SDS011;11347;52.030;4.690;2022-08-25T02:44:06;4.70;;;2.80;;
22359;SDS011;11347;52.030;4.690;2022-08-25T02:46:32;3.93;;;2.83;;
22359;SDS011;11347;52.030;4.690;2022-08-25T02:48:58;3.33;;;2.70;;
22359;SDS011;11347;52.030;4.690;2022-08-25T02:51:24;5.67;;;2.90;;
22359;SDS011;11347;52.030;4.690;2022-08-25T02:53:53;3.80;;;2.87;;
22359;SDS011;11347;52.030;4.690;2022-08-25T02:56:21;5.37;;;2.90;;
22359;SDS011;11347;52.030;4.690;2022-08-25T02:58:46;3.50;;;2.53;;
22359;SDS011;11347;52.030;4.690;2022-08-25T03:01:12;3.80;;;2.80;;
22359;SDS011;11347;52.030;4.690;2022-08-25T03:03:39;5.53;;;2.70;;
22359;SDS011;11347;52.030;4.690;2022-08-25T03:06:07;3.97;;;2.80;;
22359;SDS011;11347;52.030;4.690;2022-08-25T03:08:33;3.93;;;2.80;;
22359;SDS011;11347;52.030;4.690;2022-08-25T03:10:59;3.87;;;2.63;;
22359;SDS011;11347;52.030;4.690;2022-08-25T03:13:25;5.27;;;2.90;;
22359;SDS011;11347;52.030;4.690;2022-08-25T03:15:50;3.67;;;2.57;;
22359;SDS011;11347;52.030;4.690;2022-08-25T03:18:16;5.93;;;2.80;;
22359;SDS011;11347;52.030;4.690;2022-08-25T03:20:41;4.43;;;2.77;;
22359;SDS011;11347;52.030;4.690;2022-08-25T03:23:08;5.47;;;2.70;;
22359;SDS011;11347;52.030;4.690;2022-08-25T03:25:33;3.57;;;2.83;;
22359;SDS011;11347;52.030;4.690;2022-08-25T03:28:18;3.80;;;2.60;;
22359;SDS011;11347;52.030;4.690;2022-08-25T03:30:44;4.90;;;2.67;;
22359;SDS011;11347;52.030;4.690;2022-08-25T03:33:10;3.43;;;2.70;;
22359;SDS011;11347;52.030;4.690;2022-08-25T03:35:36;3.90;;;2.50;;
22359;SDS011;11347;52.030;4.690;2022-08-25T03:38:02;5.40;;;2.60;;
22359;SDS011;11347;52.030;4.690;2022-08-25T03:40:27;3.00;;;2.50;;
22359;SDS011;11347;52.030;4.690;2022-08-25T03:42:53;2.93;;;2.30;;
22359;SDS011;11347;52.030;4.690;2022-08-25T03:45:20;3.47;;;2.57;;
22359;SDS011;11347;52.030;4.690;2022-08-25T03:47:47;2.80;;;2.50;;
22359;SDS011;11347;52.030;4.690;2022-08-25T03:50:14;3.37;;;2.50;;
22359;SDS011;11347;52.030;4.690;2022-08-25T03:52:41;3.00;;;2.20;;
22359;SDS011;11347;52.030;4.690;2022-08-25T03:55:08;5.30;;;2.30;;
22359;SDS011;11347;52.030;4.690;2022-08-25T03:57:36;3.20;;;2.50;;
22359;SDS011;11347;52.030;4.690;2022-08-25T04:00:03;6.03;;;2.20;;
22359;SDS011;11347;52.030;4.690;2022-08-25T04:02:31;4.43;;;2.50;;
22359;SDS011;11347;52.030;4.690;2022-08-25T04:04:57;3.63;;;2.20;;
22359;SDS011;11347;52.030;4.690;2022-08-25T04:07:23;3.83;;;2.40;;
22359;SDS011;11347;52.030;4.690;2022-08-25T04:09:48;2.70;;;2.30;;
22359;SDS011;11347;52.030;4.690;2022-08-25T04:12:14;4.90;;;2.63;;
22359;SDS011;11347;52.030;4.690;2022-08-25T04:14:40;3.03;;;2.50;;
22359;SDS011;11347;52.030;4.690;2022-08-25T04:17:06;4.33;;;2.33;;
22359;SDS011;11347;52.030;4.690;2022-08-25T04:19:32;4.17;;;2.33;;
22359;SDS011;11347;52.030;4.690;2022-08-25T04:21:58;3.93;;;2.43;;
22359;SDS011;11347;52.030;4.690;2022-08-25T04:24:23;3.17;;;2.30;;
22359;SDS011;11347;52.030;4.690;2022-08-25T04:26:49;4.70;;;2.20;;
22359;SDS011;11347;52.030;4.690;2022-08-25T04:29:16;3.00;;;2.33;;
22359;SDS011;11347;52.030;4.690;2022-08-25T04:31:45;4.67;;;3.03;;
22359;SDS011;11347;52.030;4.690;2022-08-25T04:34:11;4.67;;;2.50;;
22359;SDS011;11347;52.030;4.690;2022-08-25T04:36:37;3.47;;;2.70;;
22359;SDS011;11347;52.030;4.690;2022-08-25T04:39:04;3.67;;;2.50;;
22359;SDS011;11347;52.030;4.690;2022-08-25T04:41:30;3.83;;;2.63;;
22359;SDS011;11347;52.030;4.690;2022-08-25T04:43:56;4.83;;;2.23;;
22359;SDS011;11347;52.030;4.690;2022-08-25T04:46:24;4.00;;;2.53;;
22359;SDS011;11347;52.030;4.690;2022-08-25T04:48:53;4.43;;;2.33;;
22359;SDS011;11347;52.030;4.690;2022-08-25T04:51:23;4.93;;;2.60;;
22359;SDS011;11347;52.030;4.690;2022-08-25T04:53:51;3.90;;;2.40;;
22359;SDS011;11347;52.030;4.690;2022-08-25T04:56:19;3.23;;;2.17;;
22359;SDS011;11347;52.030;4.690;2022-08-25T04:58:48;3.23;;;2.40;;
22359;SDS011;11347;52.030;4.690;2022-08-25T05:01:15;3.87;;;2.33;;
22359;SDS011;11347;52.030;4.690;2022-08-25T05:03:46;3.50;;;2.40;;
22359;SDS011;11347;52.030;4.690;2022-08-25T05:06:16;3.50;;;2.57;;
22359;SDS011;11347;52.030;4.690;2022-08-25T05:08:42;2.80;;;2.30;;
22359;SDS011;11347;52.030;4.690;2022-08-25T05:11:09;3.07;;;2.33;;
22359;SDS011;11347;52.030;4.690;2022-08-25T05:13:41;2.77;;;2.20;;
22359;SDS011;11347;52.030;4.690;2022-08-25T05:16:08;3.07;;;2.30;;
22359;SDS011;11347;52.030;4.690;2022-08-25T05:18:34;2.83;;;2.20;;
22359;SDS011;11347;52.030;4.690;2022-08-25T05:21:00;4.20;;;2.20;;
22359;SDS011;11347;52.030;4.690;2022-08-25T05:23:31;4.57;;;1.90;;
22359;SDS011;11347;52.030;4.690;2022-08-25T05:26:00;2.90;;;2.00;;
22359;SDS011;11347;52.030;4.690;2022-08-25T05:28:37;3.50;;;2.43;;
22359;SDS011;11347;52.030;4.690;2022-08-25T05:31:08;4.43;;;2.50;;
22359;SDS011;11347;52.030;4.690;2022-08-25T05:33:35;4.47;;;2.50;;
22359;SDS011;11347;52.030;4.690;2022-08-25T05:36:03;3.83;;;2.60;;
22359;SDS011;11347;52.030;4.690;2022-08-25T05:38:30;6.53;;;2.77;;
22359;SDS011;11347;52.030;4.690;2022-08-25T05:41:00;3.47;;;2.50;;
22359;SDS011;11347;52.030;4.690;2022-08-25T05:43:28;4.73;;;2.67;;
22359;SDS011;11347;52.030;4.690;2022-08-25T05:45:54;4.77;;;2.53;;
22359;SDS011;11347;52.030;4.690;2022-08-25T05:48:20;3.80;;;2.70;;
22359;SDS011;11347;52.030;4.690;2022-08-25T05:50:50;2.77;;;2.47;;
22359;SDS011;11347;52.030;4.690;2022-08-25T05:53:16;4.17;;;2.50;;
22359;SDS011;11347;52.030;4.690;2022-08-25T05:55:43;2.97;;;2.43;;
22359;SDS011;11347;52.030;4.690;2022-08-25T05:58:09;3.60;;;2.50;;
22359;SDS011;11347;52.030;4.690;2022-08-25T06:00:36;3.13;;;2.30;;
22359;SDS011;11347;52.030;4.690;2022-08-25T06:03:02;3.20;;;2.53;;
22359;SDS011;11347;52.030;4.690;2022-08-25T06:05:28;4.83;;;2.60;;
22359;SDS011;11347;52.030;4.690;2022-08-25T06:07:54;4.93;;;2.60;;
22359;SDS011;11347;52.030;4.690;2022-08-25T06:10:20;4.27;;;2.60;;
22359;SDS011;11347;52.030;4.690;2022-08-25T06:12:46;5.17;;;3.00;;
22359;SDS011;11347;52.030;4.690;2022-08-25T06:15:14;4.23;;;3.00;;
22359;SDS011;11347;52.030;4.690;2022-08-25T06:17:41;4.70;;;2.90;;
22359;SDS011;11347;52.030;4.690;2022-08-25T06:20:28;3.17;;;2.50;;
22359;SDS011;11347;52.030;4.690;2022-08-25T06:22:54;3.30;;;2.40;;
22359;SDS011;11347;52.030;4.690;2022-08-25T06:25:22;5.00;;;2.50;;
22359;SDS011;11347;52.030;4.690;2022-08-25T06:27:48;3.37;;;2.40;;
22359;SDS011;11347;52.030;4.690;2022-08-25T06:30:15;3.83;;;2.33;;
22359;SDS011;11347;52.030;4.690;2022-08-25T06:32:44;4.13;;;2.60;;
22359;SDS011;11347;52.030;4.690;2022-08-25T06:35:13;4.17;;;2.53;;
22359;SDS011;11347;52.030;4.690;2022-08-25T06:37:41;3.20;;;2.23;;
22359;SDS011;11347;52.030;4.690;2022-08-25T06:40:07;4.23;;;2.70;;
22359;SDS011;11347;52.030;4.690;2022-08-25T06:42:34;3.57;;;2.40;;
22359;SDS011;11347;52.030;4.690;2022-08-25T06:45:00;4.03;;;2.60;;
22359;SDS011;11347;52.030;4.690;2022-08-25T06:47:26;6.97;;;2.87;;
22359;SDS011;11347;52.030;4.690;2022-08-25T06:49:52;4.93;;;2.63;;
22359;SDS011;11347;52.030;4.690;2022-08-25T06:52:17;3.53;;;2.60;;
22359;SDS011;11347;52.030;4.690;2022-08-25T06:54:43;3.33;;;2.37;;
22359;SDS011;11347;52.030;4.690;2022-08-25T06:57:09;3.40;;;2.47;;
22359;SDS011;11347;52.030;4.690;2022-08-25T06:59:35;5.20;;;2.80;;
22359;SDS011;11347;52.030;4.690;2022-08-25T07:02:02;4.27;;;2.53;;
22359;SDS011;11347;52.030;4.690;2022-08-25T07:04:28;4.00;;;2.17;;
22359;SDS011;11347;52.030;4.690;2022-08-25T07:06:54;2.67;;;2.00;;
22359;SDS011;11347;52.030;4.690;2022-08-25T07:09:20;4.93;;;2.43;;
22359;SDS011;11347;52.030;4.690;2022-08-25T07:11:46;4.27;;;2.50;;
22359;SDS011;11347;52.030;4.690;2022-08-25T07:14:12;3.53;;;2.27;;
22359;SDS011;11347;52.030;4.690;2022-08-25T07:16:40;4.43;;;2.40;;
22359;SDS011;11347;52.030;4.690;2022-08-25T07:19:07;3.70;;;2.50;;
22359;SDS011;11347;52.030;4.690;2022-08-25T07:21:34;3.33;;;2.53;;
22359;SDS011;11347;52.030;4.690;2022-08-25T07:24:03;4.43;;;2.37;;
22359;SDS011;11347;52.030;4.690;2022-08-25T07:26:31;3.13;;;2.33;;
22359;SDS011;11347;52.030;4.690;2022-08-25T07:29:01;4.83;;;2.60;;
22359;SDS011;11347;52.030;4.690;2022-08-25T07:31:29;3.17;;;2.40;;
22359;SDS011;11347;52.030;4.690;2022-08-25T07:33:55;4.30;;;2.30;;
22359;SDS011;11347;52.030;4.690;2022-08-25T07:36:40;5.83;;;2.70;;
22359;SDS011;11347;52.030;4.690;2022-08-25T07:39:06;5.60;;;2.80;;
22359;SDS011;11347;52.030;4.690;2022-08-25T07:41:35;3.00;;;2.50;;
22359;SDS011;11347;52.030;4.690;2022-08-25T07:44:02;7.03;;;2.60;;
22359;SDS011;11347;52.030;4.690;2022-08-25T07:46:28;5.53;;;2.80;;
22359;SDS011;11347;52.030;4.690;2022-08-25T07:48:54;6.50;;;2.63;;
22359;SDS011;11347;52.030;4.690;2022-08-25T07:51:20;4.93;;;2.57;;
22359;SDS011;11347;52.030;4.690;2022-08-25T07:53:46;6.77;;;2.93;;
22359;SDS011;11347;52.030;4.690;2022-08-25T07:56:12;6.87;;;2.93;;
22359;SDS011;11347;52.030;4.690;2022-08-25T07:58:39;9.10;;;3.10;;
22359;SDS011;11347;52.030;4.690;2022-08-25T08:01:05;8.97;;;2.80;;
22359;SDS011;11347;52.030;4.690;2022-08-25T08:03:36;8.10;;;2.93;;
22359;SDS011;11347;52.030;4.690;2022-08-25T08:06:06;5.90;;;2.70;;
22359;SDS011;11347;52.030;4.690;2022-08-25T08:08:33;5.70;;;2.90;;
22359;SDS011;11347;52.030;4.690;2022-08-25T08:11:00;7.17;;;2.73;;
22359;SDS011;11347;52.030;4.690;2022-08-25T08:13:26;4.80;;;2.63;;
22359;SDS011;11347;52.030;4.690;2022-08-25T08:15:51;7.50;;;2.90;;
22359;SDS011;11347;52.030;4.690;2022-08-25T08:18:17;4.50;;;2.80;;
22359;SDS011;11347;52.030;4.690;2022-08-25T08:20:44;6.13;;;3.00;;
22359;SDS011;11347;52.030;4.690;2022-08-25T08:23:11;8.43;;;2.90;;
22359;SDS011;11347;52.030;4.690;2022-08-25T08:25:37;4.70;;;2.83;;
22359;SDS011;11347;52.030;4.690;2022-08-25T08:28:02;7.50;;;2.80;;
22359;SDS011;11347;52.030;4.690;2022-08-25T08:30:28;5.13;;;2.47;;
22359;SDS011;11347;52.030;4.690;2022-08-25T08:32:54;5.43;;;2.80;;
22359;SDS011;11347;52.030;4.690;2022-08-25T08:35:20;5.63;;;2.53;;
22359;SDS011;11347;52.030;4.690;2022-08-25T08:37:45;4.53;;;2.70;;
22359;SDS011;11347;52.030;4.690;2022-08-25T08:40:11;4.70;;;2.40;;
22359;SDS011;11347;52.030;4.690;2022-08-25T08:45:45;4.13;;;2.20;;
22359;SDS011;11347;52.030;4.690;2022-08-25T08:48:30;5.30;;;2.27;;
22359;SDS011;11347;52.030;4.690;2022-08-25T08:51:02;6.07;;;2.47;;
22359;SDS011;11347;52.030;4.690;2022-08-25T08:53:51;7.00;;;2.87;;
22359;SDS011;11347;52.030;4.690;2022-08-25T08:56:30;5.37;;;2.53;;
22359;SDS011;11347;52.030;4.690;2022-08-25T08:59:02;4.17;;;2.30;;
22359;SDS011;11347;52.030;4.690;2022-08-25T09:04:04;4.00;;;2.17;;
22359;SDS011;11347;52.030;4.690;2022-08-25T09:06:36;5.50;;;2.50;;
22359;SDS011;11347;52.030;4.690;2022-08-25T09:09:10;6.17;;;2.20;;
22359;SDS011;11347;52.030;4.690;2022-08-25T09:22:53;7.07;;;2.70;;
22359;SDS011;11347;52.030;4.690;2022-08-25T09:30:48;4.20;;;2.00;;
22359;SDS011;11347;52.030;4.690;2022-08-25T09:33:19;6.43;;;2.40;;
22359;SDS011;11347;52.030;4.690;2022-08-25T09:35:46;3.43;;;1.97;;
22359;SDS011;11347;52.030;4.690;2022-08-25T09:38:15;4.03;;;2.00;;
22359;SDS011;11347;52.030;4.690;2022-08-25T09:40:41;4.17;;;2.13;;
22359;SDS011;11347;52.030;4.690;2022-08-25T09:51:22;4.07;;;2.10;;
22359;SDS011;11347;52.030;4.690;2022-08-25T09:56:24;4.73;;;2.00;;
22359;SDS011;11347;52.030;4.690;2022-08-25T09:58:52;5.13;;;1.97;;
22359;SDS011;11347;52.030;4.690;2022-08-25T10:01:22;2.77;;;1.83;;
22359;SDS011;11347;52.030;4.690;2022-08-25T10:04:21;3.47;;;2.00;;
22359;SDS011;11347;52.030;4.690;2022-08-25T10:06:48;3.47;;;1.93;;
22359;SDS011;11347;52.030;4.690;2022-08-25T10:09:26;4.53;;;1.80;;
22359;SDS011;11347;52.030;4.690;2022-08-25T10:11:58;4.13;;;1.87;;
22359;SDS011;11347;52.030;4.690;2022-08-25T10:14:39;4.17;;;1.90;;
22359;SDS011;11347;52.030;4.690;2022-08-25T10:19:51;3.13;;;1.70;;
22359;SDS011;11347;52.030;4.690;2022-08-25T10:22:22;3.23;;;1.70;;
22359;SDS011;11347;52.030;4.690;2022-08-25T10:24:57;2.90;;;2.00;;
22359;SDS011;11347;52.030;4.690;2022-08-25T10:27:33;3.77;;;2.10;;
22359;SDS011;11347;52.030;4.690;2022-08-25T10:30:32;3.43;;;1.80;;
22359;SDS011;11347;52.030;4.690;2022-08-25T10:41:33;5.57;;;2.20;;
22359;SDS011;11347;52.030;4.690;2022-08-25T10:44:02;2.90;;;1.77;;
22359;SDS011;11347;52.030;4.690;2022-08-25T10:46:40;3.97;;;1.70;;
22359;SDS011;11347;52.030;4.690;2022-08-25T10:49:20;2.97;;;1.77;;
22359;SDS011;11347;52.030;4.690;2022-08-25T10:52:02;3.77;;;1.83;;
22359;SDS011;11347;52.030;4.690;2022-08-25T10:57:21;3.33;;;1.90;;
22359;SDS011;11347;52.030;4.690;2022-08-25T11:00:05;5.63;;;2.07;;
22359;SDS011;11347;52.030;4.690;2022-08-25T11:05:57;4.37;;;1.93;;
22359;SDS011;11347;52.030;4.690;2022-08-25T11:08:18;3.03;;;1.70;;
22359;SDS011;11347;52.030;4.690;2022-08-25T11:16:18;3.97;;;1.70;;
22359;SDS011;11347;52.030;4.690;2022-08-25T11:18:58;4.33;;;1.80;;
22359;SDS011;11347;52.030;4.690;2022-08-25T11:21:57;3.27;;;1.90;;
22359;SDS011;11347;52.030;4.690;2022-08-25T11:24:35;3.47;;;1.90;;
22359;SDS011;11347;52.030;4.690;2022-08-25T11:27:17;4.27;;;2.60;;
22359;SDS011;11347;52.030;4.690;2022-08-25T11:30:08;6.03;;;3.73;;
22359;SDS011;11347;52.030;4.690;2022-08-25T11:32:37;9.27;;;5.53;;
22359;SDS011;11347;52.030;4.690;2022-08-25T11:35:07;15.20;;;7.13;;
22359;SDS011;11347;52.030;4.690;2022-08-25T11:37:37;9.97;;;6.53;;
22359;SDS011;11347;52.030;4.690;2022-08-25T11:40:31;9.67;;;6.87;;
22359;SDS011;11347;52.030;4.690;2022-08-25T11:51:50;9.00;;;5.83;;
22359;SDS011;11347;52.030;4.690;2022-08-25T11:54:21;11.07;;;6.07;;
22359;SDS011;11347;52.030;4.690;2022-08-25T11:56:58;7.97;;;5.70;;
22359;SDS011;11347;52.030;4.690;2022-08-25T12:02:33;7.40;;;5.17;;
22359;SDS011;11347;52.030;4.690;2022-08-25T12:13:24;7.53;;;4.80;;
22359;SDS011;11347;52.030;4.690;2022-08-25T12:16:01;6.27;;;4.47;;
22359;SDS011;11347;52.030;4.690;2022-08-25T12:23:31;6.47;;;3.83;;
22359;SDS011;11347;52.030;4.690;2022-08-25T12:25:59;6.93;;;3.40;;
22359;SDS011;11347;52.030;4.690;2022-08-25T12:28:45;4.20;;;3.23;;
22359;SDS011;11347;52.030;4.690;2022-08-25T12:31:20;7.97;;;3.40;;
22359;SDS011;11347;52.030;4.690;2022-08-25T12:37:18;4.23;;;2.90;;
22359;SDS011;11347;52.030;4.690;2022-08-25T12:42:21;5.47;;;3.37;;
22359;SDS011;11347;52.030;4.690;2022-08-25T12:47:38;5.07;;;3.10;;
22359;SDS011;11347;52.030;4.690;2022-08-25T12:52:50;4.10;;;2.63;;
22359;SDS011;11347;52.030;4.690;2022-08-25T12:55:17;5.73;;;2.57;;
22359;SDS011;11347;52.030;4.690;2022-08-25T12:57:49;5.10;;;2.57;;
22359;SDS011;11347;52.030;4.690;2022-08-25T13:11:23;4.40;;;2.40;;
22359;SDS011;11347;52.030;4.690;2022-08-25T13:14:15;4.43;;;2.27;;
22359;SDS011;11347;52.030;4.690;2022-08-25T13:16:54;3.90;;;2.07;;
22359;SDS011;11347;52.030;4.690;2022-08-25T13:19:22;3.30;;;2.40;;
22359;SDS011;11347;52.030;4.690;2022-08-25T13:21:49;4.03;;;2.00;;
22359;SDS011;11347;52.030;4.690;2022-08-25T13:24:23;3.33;;;2.20;;
22359;SDS011;11347;52.030;4.690;2022-08-25T13:26:56;3.67;;;2.40;;
22359;SDS011;11347;52.030;4.690;2022-08-25T13:29:25;4.03;;;2.20;;
22359;SDS011;11347;52.030;4.690;2022-08-25T13:31:57;3.73;;;2.20;;
22359;SDS011;11347;52.030;4.690;2022-08-25T13:34:31;4.53;;;2.20;;
22359;SDS011;11347;52.030;4.690;2022-08-25T13:37:22;3.30;;;2.03;;
22359;SDS011;11347;52.030;4.690;2022-08-25T13:43:05;3.23;;;2.10;;
22359;SDS011;11347;52.030;4.690;2022-08-25T13:45:34;3.43;;;1.93;;
22359;SDS011;11347;52.030;4.690;2022-08-25T13:48:06;2.53;;;1.90;;
22359;SDS011;11347;52.030;4.690;2022-08-25T13:50:35;2.97;;;1.83;;
22359;SDS011;11347;52.030;4.690;2022-08-25T13:53:03;3.97;;;1.90;;
22359;SDS011;11347;52.030;4.690;2022-08-25T13:58:03;3.50;;;2.10;;
22359;SDS011;11347;52.030;4.690;2022-08-25T14:03:04;5.67;;;2.10;;
22359;SDS011;11347;52.030;4.690;2022-08-25T14:05:32;3.07;;;2.10;;
22359;SDS011;11347;52.030;4.690;2022-08-25T14:07:58;3.80;;;2.10;;
22359;SDS011;11347;52.030;4.690;2022-08-25T14:10:32;3.57;;;2.00;;
22359;SDS011;11347;52.030;4.690;2022-08-25T14:13:12;3.20;;;1.93;;
22359;SDS011;11347;52.030;4.690;2022-08-25T14:15:40;4.03;;;2.30;;
22359;SDS011;11347;52.030;4.690;2022-08-25T14:20:53;3.13;;;2.00;;
22359;SDS011;11347;52.030;4.690;2022-08-25T14:23:22;5.90;;;2.00;;
22359;SDS011;11347;52.030;4.690;2022-08-25T14:25:52;5.00;;;2.10;;
22359;SDS011;11347;52.030;4.690;2022-08-25T14:28:21;4.27;;;2.10;;
22359;SDS011;11347;52.030;4.690;2022-08-25T14:30:52;3.00;;;2.17;;
22359;SDS011;11347;52.030;4.690;2022-08-25T14:33:21;3.50;;;2.00;;
22359;SDS011;11347;52.030;4.690;2022-08-25T14:35:51;3.07;;;2.00;;
22359;SDS011;11347;52.030;4.690;2022-08-25T14:38:18;3.27;;;2.17;;
22359;SDS011;11347;52.030;4.690;2022-08-25T14:40:44;2.63;;;1.90;;
22359;SDS011;11347;52.030;4.690;2022-08-25T14:43:10;3.63;;;2.00;;
22359;SDS011;11347;52.030;4.690;2022-08-25T14:45:37;3.33;;;2.00;;
22359;SDS011;11347;52.030;4.690;2022-08-25T14:48:07;2.93;;;1.77;;
22359;SDS011;11347;52.030;4.690;2022-08-25T14:50:35;2.57;;;2.00;;
22359;SDS011;11347;52.030;4.690;2022-08-25T14:53:01;2.70;;;2.00;;
22359;SDS011;11347;52.030;4.690;2022-08-25T14:55:27;3.83;;;2.10;;
22359;SDS011;11347;52.030;4.690;2022-08-25T14:57:53;4.57;;;2.00;;
22359;SDS011;11347;52.030;4.690;2022-08-25T15:00:19;3.03;;;2.17;;
22359;SDS011;11347;52.030;4.690;2022-08-25T15:02:45;2.73;;;2.03;;
22359;SDS011;11347;52.030;4.690;2022-08-25T15:05:12;3.07;;;2.20;;
22359;SDS011;11347;52.030;4.690;2022-08-25T15:07:40;6.10;;;2.30;;
22359;SDS011;11347;52.030;4.690;2022-08-25T15:10:24;2.40;;;1.97;;
22359;SDS011;11347;52.030;4.690;2022-08-25T15:12:50;4.13;;;2.27;;
22359;SDS011;11347;52.030;4.690;2022-08-25T15:15:16;5.20;;;2.63;;
22359;SDS011;11347;52.030;4.690;2022-08-25T15:17:42;4.10;;;2.80;;
22359;SDS011;11347;52.030;4.690;2022-08-25T15:20:11;5.33;;;2.50;;
22359;SDS011;11347;52.030;4.690;2022-08-25T15:22:37;3.77;;;2.60;;
22359;SDS011;11347;52.030;4.690;2022-08-25T15:25:03;4.93;;;2.60;;
22359;SDS011;11347;52.030;4.690;2022-08-25T15:27:29;3.57;;;2.40;;
22359;SDS011;11347;52.030;4.690;2022-08-25T15:29:55;5.77;;;2.87;;
22359;SDS011;11347;52.030;4.690;2022-08-25T15:32:21;6.73;;;3.20;;
22359;SDS011;11347;52.030;4.690;2022-08-25T15:34:48;5.20;;;2.60;;
22359;SDS011;11347;52.030;4.690;2022-08-25T15:37:15;5.07;;;2.60;;
22359;SDS011;11347;52.030;4.690;2022-08-25T15:39:42;3.63;;;2.60;;
22359;SDS011;11347;52.030;4.690;2022-08-25T15:42:09;6.00;;;3.10;;
22359;SDS011;11347;52.030;4.690;2022-08-25T15:44:39;5.90;;;2.60;;
22359;SDS011;11347;52.030;4.690;2022-08-25T15:47:05;3.97;;;2.80;;
22359;SDS011;11347;52.030;4.690;2022-08-25T15:49:31;5.00;;;2.80;;
22359;SDS011;11347;52.030;4.690;2022-08-25T15:51:57;3.03;;;2.43;;
22359;SDS011;11347;52.030;4.690;2022-08-25T15:54:23;4.70;;;2.73;;
22359;SDS011;11347;52.030;4.690;2022-08-25T15:56:50;4.60;;;2.63;;
22359;SDS011;11347;52.030;4.690;2022-08-25T15:59:16;4.90;;;2.70;;
22359;SDS011;11347;52.030;4.690;2022-08-25T16:01:41;3.30;;;2.70;;
22359;SDS011;11347;52.030;4.690;2022-08-25T16:04:10;4.13;;;2.83;;
22359;SDS011;11347;52.030;4.690;2022-08-25T16:06:36;4.67;;;2.57;;
22359;SDS011;11347;52.030;4.690;2022-08-25T16:09:03;5.73;;;2.97;;
22359;SDS011;11347;52.030;4.690;2022-08-25T16:11:30;4.57;;;2.83;;
22359;SDS011;11347;52.030;4.690;2022-08-25T16:13:59;4.27;;;2.80;;
22359;SDS011;11347;52.030;4.690;2022-08-25T16:16:26;4.40;;;2.70;;
22359;SDS011;11347;52.030;4.690;2022-08-25T16:18:53;6.93;;;3.07;;
22359;SDS011;11347;52.030;4.690;2022-08-25T16:21:21;5.30;;;3.20;;
22359;SDS011;11347;52.030;4.690;2022-08-25T16:23:51;4.60;;;3.00;;
22359;SDS011;11347;52.030;4.690;2022-08-25T16:26:19;5.30;;;3.07;;
22359;SDS011;11347;52.030;4.690;2022-08-25T16:28:44;5.00;;;3.13;;
22359;SDS011;11347;52.030;4.690;2022-08-25T16:31:11;5.03;;;3.03;;
22359;SDS011;11347;52.030;4.690;2022-08-25T16:33:38;4.33;;;3.23;;
22359;SDS011;11347;52.030;4.690;2022-08-25T16:36:05;5.87;;;3.57;;
22359;SDS011;11347;52.030;4.690;2022-08-25T16:38:39;6.53;;;3.83;;
22359;SDS011;11347;52.030;4.690;2022-08-25T16:41:06;5.47;;;3.40;;
22359;SDS011;11347;52.030;4.690;2022-08-25T16:43:36;6.23;;;3.47;;
22359;SDS011;11347;52.030;4.690;2022-08-25T16:46:04;4.90;;;3.20;;
22359;SDS011;11347;52.030;4.690;2022-08-25T16:48:31;4.10;;;2.97;;
22359;SDS011;11347;52.030;4.690;2022-08-25T16:50:57;3.47;;;2.73;;
22359;SDS011;11347;52.030;4.690;2022-08-25T16:53:23;5.07;;;2.90;;
22359;SDS011;11347;52.030;4.690;2022-08-25T16:56:08;3.83;;;3.10;;
22359;SDS011;11347;52.030;4.690;2022-08-25T16:58:34;3.73;;;2.90;;